Time;durP1;ratioP1;P1;durP2;ratioP2;P2;SDS_P1;SDS_P2;PMS_P1;PMS_P2;Temp;Humidity;BMP_temperature;BMP_pressure;BME280_temperature;BME280_humidity;BME280_pressure;Samples;Min_cycle;Max_cycle;Signal;HPM_P1;HPM_P2
2021/12/01 00:01:28;;;;;;;18.88;13.55;;;;;;;15.66;47.10;92471.13;4991798;28;20042;-92
2021/12/01 00:03:54;;;;;;;17.30;13.73;;;;;;;15.64;47.03;92475.63;4976037;28;20081;-90
2021/12/01 00:06:19;;;;;;;19.85;14.23;;;;;;;15.64;46.94;92476.34;4975899;28;20499;-91
2021/12/01 00:08:45;;;;;;;19.88;13.80;;;;;;;15.66;47.14;92464.94;4991684;28;20054;-91
2021/12/01 00:11:13;;;;;;;19.15;14.25;;;;;;;15.71;46.95;92464.88;4991448;28;20042;-90
2021/12/01 00:13:38;;;;;;;18.88;14.27;;;;;;;15.71;47.16;92472.31;4992779;28;20050;-91
2021/12/01 00:16:04;;;;;;;20.50;13.77;;;;;;;15.63;47.22;92469.44;4974766;28;20045;-91
2021/12/01 00:18:29;;;;;;;21.05;14.63;;;;;;;15.59;47.30;92479.88;4991511;28;20042;-91
2021/12/01 00:20:56;;;;;;;17.33;13.45;;;;;;;15.67;47.38;92475.34;4976084;28;20034;-91
2021/12/01 00:23:21;;;;;;;17.85;13.43;;;;;;;15.70;46.96;92477.03;4975322;28;20034;-90
2021/12/01 00:25:46;;;;;;;19.27;13.70;;;;;;;15.68;47.28;92476.06;4976987;28;20057;-91
2021/12/01 00:28:12;;;;;;;18.38;13.20;;;;;;;15.70;47.00;92481.75;4995078;28;20510;-91
2021/12/01 00:30:40;;;;;;;18.90;14.10;;;;;;;15.72;47.27;92479.25;4979450;28;20038;-91
2021/12/01 00:33:05;;;;;;;15.07;11.48;;;;;;;15.73;46.92;92481.44;4976187;28;20481;-91
2021/12/01 00:35:31;;;;;;;18.90;13.77;;;;;;;15.70;46.84;92473.56;4992491;28;20045;-92
2021/12/01 00:37:56;;;;;;;14.15;11.43;;;;;;;15.74;46.47;92461.13;5008901;28;20043;-91
2021/12/01 00:40:24;;;;;;;15.93;12.38;;;;;;;15.65;47.26;92466.19;4976426;28;20371;-90
2021/12/01 00:42:50;;;;;;;20.52;13.38;;;;;;;15.69;47.45;92469.38;4996038;28;20061;-91
2021/12/01 00:45:21;;;;;;;18.20;12.55;;;;;;;15.69;46.97;92472.09;4995035;28;20040;-91
2021/12/01 00:47:49;;;;;;;18.70;12.32;;;;;;;15.66;46.76;92473.84;4996514;28;20041;-91
2021/12/01 00:50:24;;;;;;;16.40;12.75;;;;;;;15.65;47.10;92486.00;4995408;28;20038;-91
2021/12/01 00:52:51;;;;;;;18.38;12.70;;;;;;;15.59;47.18;92481.91;4979662;28;20030;-90
2021/12/01 00:55:16;;;;;;;16.15;11.63;;;;;;;15.68;46.99;92478.78;4994913;28;20037;-91
2021/12/01 00:57:42;;;;;;;16.73;11.95;;;;;;;15.66;47.14;92470.41;4995297;28;20049;-90
2021/12/01 01:00:08;;;;;;;17.77;12.48;;;;;;;15.70;47.26;92473.56;4994657;28;20064;-90
2021/12/01 01:02:35;;;;;;;17.35;12.70;;;;;;;15.68;47.45;92468.63;4994911;28;20046;-91
2021/12/01 01:05:00;;;;;;;15.88;12.00;;;;;;;15.61;47.47;92482.84;4991767;28;20053;-91
2021/12/01 01:07:26;;;;;;;17.02;11.75;;;;;;;15.69;46.92;92472.84;4991429;28;20034;-91
2021/12/01 01:09:51;;;;;;;16.65;11.73;;;;;;;15.69;47.08;92481.00;4976198;28;20049;-91
2021/12/01 01:17:52;;;;;;;13.82;9.77;;;;;;;15.77;46.58;92475.72;4983185;28;20049;-90
2021/12/01 01:20:18;;;;;;;14.68;10.73;;;;;;;15.75;47.10;92478.22;4992584;28;20053;-90
2021/12/01 01:22:43;;;;;;;12.40;9.90;;;;;;;15.72;46.89;92487.41;4975636;28;20038;-91
2021/12/01 01:25:09;;;;;;;15.65;11.45;;;;;;;15.71;46.93;92475.03;4974803;28;20055;-91
2021/12/01 01:27:34;;;;;;;15.88;11.10;;;;;;;15.63;47.05;92482.31;4975681;28;20114;-91
2021/12/01 01:29:59;;;;;;;15.35;11.27;;;;;;;15.67;46.93;92478.06;4978737;28;20041;-91
2021/12/01 01:32:25;;;;;;;15.05;11.45;;;;;;;15.71;47.18;92483.22;4977583;28;20044;-91
2021/12/01 01:34:50;;;;;;;14.40;9.77;;;;;;;15.64;47.20;92481.06;4994786;28;20428;-91
2021/12/01 01:37:16;;;;;;;14.05;10.25;;;;;;;15.64;47.35;92483.78;4993692;28;20513;-91
2021/12/01 01:39:41;;;;;;;15.80;11.07;;;;;;;15.67;46.99;92480.78;5011024;28;20713;-91
2021/12/01 01:42:07;;;;;;;13.95;9.75;;;;;;;15.66;47.07;92473.84;4989705;28;20524;-91
2021/12/01 01:44:32;;;;;;;12.98;10.45;;;;;;;15.67;46.94;92478.06;4991183;28;20034;-91
2021/12/01 01:46:57;;;;;;;13.18;10.35;;;;;;;15.70;47.08;92457.22;4991305;28;20489;-91
2021/12/01 01:49:37;;;;;;;13.65;9.52;;;;;;;15.64;46.77;92467.44;4990652;28;20039;-91
2021/12/01 01:52:02;;;;;;;11.73;8.93;;;;;;;15.66;46.99;92445.88;4962360;28;20061;-90
2021/12/01 01:54:28;;;;;;;12.77;9.30;;;;;;;15.76;46.66;92460.63;4972517;28;20485;-91
2021/12/01 01:56:53;;;;;;;13.15;10.73;;;;;;;15.70;47.13;92455.22;4994718;28;20045;-91
2021/12/01 01:59:18;;;;;;;14.13;9.93;;;;;;;15.66;47.28;92451.31;4977922;28;20046;-92
2021/12/01 02:01:44;;;;;;;14.18;10.73;;;;;;;15.69;47.51;92444.84;4990341;28;20039;-91
2021/12/01 02:04:11;;;;;;;14.88;9.98;;;;;;;15.66;47.48;92438.44;4974056;28;20045;-91
2021/12/01 02:06:36;;;;;;;15.02;10.57;;;;;;;15.65;47.53;92433.50;4976513;28;20118;-90
2021/12/01 02:09:02;;;;;;;11.68;9.30;;;;;;;15.63;47.41;92430.56;4976661;28;20085;-90
2021/12/01 02:11:28;;;;;;;14.05;9.07;;;;;;;15.62;47.51;92424.38;4992577;28;20049;-91
2021/12/01 02:13:53;;;;;;;13.10;9.23;;;;;;;15.68;47.40;92413.41;4976547;28;20145;-91
2021/12/01 02:16:19;;;;;;;15.35;9.57;;;;;;;15.62;47.18;92423.63;4975662;28;20459;-92
2021/12/01 02:18:45;;;;;;;13.02;9.45;;;;;;;15.65;47.04;92420.63;4992946;28;20057;-91
2021/12/01 02:21:13;;;;;;;11.00;9.30;;;;;;;15.64;47.23;92421.88;4956111;28;20038;-91
2021/12/01 02:23:40;;;;;;;12.60;9.25;;;;;;;15.67;47.59;92409.22;4972702;28;20042;-90
2021/12/01 02:26:06;;;;;;;11.68;8.60;;;;;;;15.68;46.99;92407.97;4956463;28;20116;-90
2021/12/01 02:28:32;;;;;;;9.85;7.78;;;;;;;15.63;47.23;92411.50;4940333;28;20038;-90
2021/12/01 02:30:58;;;;;;;11.82;9.15;;;;;;;15.58;47.41;92415.06;4939977;28;20043;-91
2021/12/01 02:33:23;;;;;;;10.15;8.35;;;;;;;15.63;46.74;92414.94;4955981;28;20172;-90
2021/12/01 02:35:48;;;;;;;10.57;8.55;;;;;;;15.70;47.06;92410.91;4956595;28;20039;-91
2021/12/01 02:38:14;;;;;;;11.85;8.85;;;;;;;15.61;47.26;92403.84;4955968;28;20038;-90
2021/12/01 02:40:40;;;;;;;10.52;8.73;;;;;;;15.59;47.45;92419.25;4936598;28;20047;-91
2021/12/01 02:43:05;;;;;;;11.85;8.95;;;;;;;15.65;47.29;92412.44;4952331;28;20049;-90
2021/12/01 02:45:31;;;;;;;11.77;9.07;;;;;;;15.63;47.37;92406.03;4952846;28;20046;-90
2021/12/01 02:47:57;;;;;;;10.13;7.78;;;;;;;15.69;47.47;92410.16;4952105;28;20446;-91
2021/12/01 02:50:22;;;;;;;9.43;7.68;;;;;;;15.60;47.26;92407.06;4935913;28;20038;-90
2021/12/01 02:52:48;;;;;;;10.63;7.72;;;;;;;15.69;47.41;92399.28;4938083;28;20039;-90
2021/12/01 02:55:17;;;;;;;11.57;7.65;;;;;;;15.65;47.22;92396.09;4953281;28;20034;-91
2021/12/01 02:57:46;;;;;;;8.88;7.40;;;;;;;15.63;47.14;92389.69;4955373;28;20069;-90
2021/12/01 03:00:12;;;;;;;9.73;7.85;;;;;;;15.63;47.65;92390.44;4954296;28;20453;-91
2021/12/01 03:02:37;;;;;;;8.27;7.00;;;;;;;15.69;47.29;92391.09;4950594;28;20035;-91
2021/12/01 03:05:03;;;;;;;10.48;7.85;;;;;;;15.64;47.16;92385.72;4966888;28;20036;-90
2021/12/01 03:07:29;;;;;;;9.77;7.38;;;;;;;15.62;47.45;92383.50;4953346;28;20461;-91
2021/12/01 03:09:54;;;;;;;9.10;7.20;;;;;;;15.59;47.31;92378.38;4970157;28;20039;-90
2021/12/01 03:12:19;;;;;;;11.77;8.02;;;;;;;15.62;47.49;92378.06;4969699;28;20069;-91
2021/12/01 03:14:45;;;;;;;10.18;7.70;;;;;;;15.67;47.63;92373.78;4950316;28;20043;-91
2021/12/01 03:17:13;;;;;;;9.55;7.47;;;;;;;15.63;47.42;92371.38;4949251;28;20395;-91
2021/12/01 03:19:39;;;;;;;8.45;6.38;;;;;;;15.65;47.18;92360.69;4953596;28;20042;-90
2021/12/01 03:22:05;;;;;;;8.63;7.10;;;;;;;15.63;47.36;92354.28;4953020;28;20042;-90
2021/12/01 03:24:33;;;;;;;10.10;7.28;;;;;;;15.64;47.24;92361.19;4953807;28;20031;-91
2021/12/01 03:26:59;;;;;;;9.00;7.85;;;;;;;15.62;47.76;92361.00;4953987;28;20623;-91
2021/12/01 03:29:24;;;;;;;9.40;7.45;;;;;;;15.62;47.19;92347.38;4968924;28;20038;-91
2021/12/01 03:31:49;;;;;;;8.95;6.80;;;;;;;15.57;47.46;92353.66;4953403;28;20039;-91
2021/12/01 03:34:15;;;;;;;9.55;8.00;;;;;;;15.67;47.59;92360.16;4969297;28;20484;-90
2021/12/01 03:36:40;;;;;;;8.50;6.40;;;;;;;15.69;47.13;92357.66;4969912;28;20121;-91
2021/12/01 03:39:06;;;;;;;8.52;6.32;;;;;;;15.64;47.22;92356.50;4953424;28;20035;-91
2021/12/01 03:41:33;;;;;;;10.52;6.90;;;;;;;15.64;47.25;92348.31;4970326;28;20045;-90
2021/12/01 03:43:59;;;;;;;8.40;6.50;;;;;;;15.67;47.01;92349.28;4977211;28;20065;-91
2021/12/01 03:46:24;;;;;;;10.00;7.20;;;;;;;15.59;47.67;92351.84;4991957;28;20025;-91
2021/12/01 03:48:50;;;;;;;8.80;6.38;;;;;;;15.61;47.44;92354.06;4992440;28;20042;-91
2021/12/01 03:51:15;;;;;;;7.40;5.97;;;;;;;15.62;47.28;92344.63;4975425;28;20030;-91
2021/12/01 03:53:40;;;;;;;10.00;7.05;;;;;;;15.62;47.18;92344.63;4975103;28;20033;-90
2021/12/01 03:56:06;;;;;;;8.63;6.47;;;;;;;15.55;47.44;92339.78;4975121;28;20034;-91
2021/12/01 03:58:31;;;;;;;11.35;7.30;;;;;;;15.60;47.75;92339.72;4975939;28;20038;-91
2021/12/01 04:00:57;;;;;;;7.25;5.95;;;;;;;15.65;47.48;92335.44;4976107;28;20058;-92
2021/12/01 04:03:22;;;;;;;7.20;5.95;;;;;;;15.64;47.11;92337.44;4991214;28;20092;-92
2021/12/01 04:05:47;;;;;;;8.45;6.07;;;;;;;15.60;47.36;92331.53;4975964;28;20038;-90
2021/12/01 04:08:13;;;;;;;7.60;6.60;;;;;;;15.64;47.58;92340.16;4975379;28;20404;-91
2021/12/01 04:10:38;;;;;;;6.93;5.50;;;;;;;15.56;47.11;92328.41;4972164;28;20038;-91
2021/12/01 04:13:04;;;;;;;7.72;5.38;;;;;;;15.62;47.50;92328.28;4988525;28;20109;-90
2021/12/01 04:15:29;;;;;;;8.55;6.47;;;;;;;15.61;47.47;92333.00;4982968;28;20562;-91
2021/12/01 04:17:55;;;;;;;8.80;6.55;;;;;;;15.63;47.50;92341.41;4975488;28;20488;-91
2021/12/01 04:20:20;;;;;;;9.30;5.75;;;;;;;15.65;47.49;92338.16;4991274;28;20034;-91
2021/12/01 04:22:47;;;;;;;6.47;5.35;;;;;;;15.68;47.09;92343.31;4992058;28;20049;-91
2021/12/01 04:25:12;;;;;;;7.55;5.78;;;;;;;15.66;46.83;92332.19;4975552;28;20100;-91
2021/12/01 04:27:38;;;;;;;6.97;5.75;;;;;;;15.69;46.97;92330.44;4975651;28;20034;-91
2021/12/01 04:30:05;;;;;;;7.22;5.75;;;;;;;15.60;47.61;92330.81;4991390;28;20042;-91
2021/12/01 04:32:30;;;;;;;7.13;5.55;;;;;;;15.58;47.53;92325.16;4975239;28;20042;-91
2021/12/01 04:34:57;;;;;;;9.90;6.53;;;;;;;15.62;47.92;92326.31;4975968;28;20045;-91
2021/12/01 04:37:24;;;;;;;7.20;5.40;;;;;;;15.59;47.65;92323.91;4991390;28;20038;-91
2021/12/01 04:39:49;;;;;;;9.63;5.75;;;;;;;15.69;47.36;92322.25;4975485;28;20122;-91
2021/12/01 04:42:16;;;;;;;7.40;6.03;;;;;;;15.66;47.47;92324.03;4973501;28;20030;-91
2021/12/01 04:44:42;;;;;;;7.93;5.57;;;;;;;15.62;47.44;92326.31;4990573;28;20069;-92
2021/12/01 04:47:13;;;;;;;6.75;5.40;;;;;;;15.55;47.31;92321.47;4969944;28;20031;-90
2021/12/01 04:49:39;;;;;;;9.07;5.90;;;;;;;15.55;47.60;92320.72;4975377;28;20045;-91
2021/12/01 04:52:06;;;;;;;9.88;5.78;;;;;;;15.62;47.75;92320.84;4971599;28;20039;-92
2021/12/01 04:54:33;;;;;;;7.50;5.28;;;;;;;15.69;47.85;92311.34;4959019;28;20048;-90
2021/12/01 04:56:59;;;;;;;9.95;6.38;;;;;;;15.67;47.93;92309.16;4974878;28;20041;-91
2021/12/01 04:59:24;;;;;;;7.80;6.05;;;;;;;15.62;47.21;92320.84;4990381;28;20528;-91
2021/12/01 05:01:52;;;;;;;8.20;6.03;;;;;;;15.65;47.49;92306.22;4990028;28;20050;-91
2021/12/01 05:04:17;;;;;;;15.02;6.45;;;;;;;15.63;47.10;92305.25;4971008;28;20088;-91
2021/12/01 05:06:43;;;;;;;10.68;5.15;;;;;;;15.55;44.95;92304.38;4983881;28;20133;-91
2021/12/01 05:09:08;;;;;;;5.53;4.30;;;;;;;15.47;44.71;92300.78;4970866;28;20173;-91
2021/12/01 05:11:33;;;;;;;5.07;3.33;;;;;;;15.42;43.63;92303.06;4955841;28;20035;-90
2021/12/01 05:13:59;;;;;;;3.83;3.13;;;;;;;15.40;42.77;92305.56;4974974;28;20541;-92
2021/12/01 05:16:25;;;;;;;3.65;2.45;;;;;;;15.26;42.14;92304.03;4993369;28;20034;-91
2021/12/01 05:18:50;;;;;;;4.90;2.95;;;;;;;15.24;42.35;92301.09;4993827;28;20045;-92
2021/12/01 05:21:16;;;;;;;3.75;3.20;;;;;;;15.37;42.36;92303.88;4977227;28;20580;-91
2021/12/01 05:23:41;;;;;;;4.57;3.13;;;;;;;15.37;43.34;92305.88;4978017;28;20057;-91
2021/12/01 05:26:07;;;;;;;268.65;197.77;;;;;;;15.42;43.53;92305.78;4979386;28;20034;-90
2021/12/01 05:28:33;;;;;;;9.27;4.90;;;;;;;15.50;45.21;92305.19;4979765;28;20120;-91
2021/12/01 05:30:59;;;;;;;5.45;4.40;;;;;;;15.60;45.82;92309.00;4995239;28;20496;-91
2021/12/01 05:33:25;;;;;;;9.93;4.93;;;;;;;15.66;46.17;92296.78;4978788;28;20104;-90
2021/12/01 05:35:50;;;;;;;6.32;4.80;;;;;;;15.70;45.58;92294.50;4977424;28;20094;-89
2021/12/01 05:38:16;;;;;;;20.63;8.13;;;;;;;15.77;45.59;92272.09;4994320;28;20057;-92
2021/12/01 05:40:41;;;;;;;15.60;11.77;;;;;;;15.69;45.92;92270.50;4939304;28;1168267;-91
2021/12/01 05:43:07;;;;;;;10.05;6.75;;;;;;;15.75;46.60;92271.88;4976303;28;20106;-89
2021/12/01 05:45:32;;;;;;;7.63;5.82;;;;;;;15.85;45.73;92274.19;4996248;28;20037;-89
2021/12/01 05:47:58;;;;;;;12.48;7.97;;;;;;;15.79;45.30;92268.13;4994875;28;20037;-89
2021/12/01 05:50:23;;;;;;;12.00;8.18;;;;;;;15.65;45.88;92265.34;4994396;28;20045;-90
2021/12/01 05:52:49;;;;;;;19.42;11.35;;;;;;;15.64;45.81;92263.13;4989774;28;20041;-90
2021/12/01 05:55:14;;;;;;;20.00;10.93;;;;;;;15.68;45.84;92253.41;4978267;28;20065;-91
2021/12/01 05:57:40;;;;;;;33.88;11.95;;;;;;;15.75;45.86;92258.25;4996346;28;20042;-91
2021/12/01 06:00:08;;;;;;;24.33;9.80;;;;;;;15.67;44.58;92262.84;5010955;28;20037;-90
2021/12/01 06:02:33;;;;;;;15.75;7.13;;;;;;;15.48;43.37;92261.41;5023793;28;20041;-91
2021/12/01 06:04:58;;;;;;;37.78;7.25;;;;;;;15.36;42.26;92271.75;4980291;28;20033;-91
2021/12/01 06:07:24;;;;;;;24.90;6.20;;;;;;;15.27;41.68;92267.41;5009419;28;20095;-90
2021/12/01 06:09:49;;;;;;;18.83;7.63;;;;;;;15.25;41.04;92274.63;5009247;28;20068;-92
2021/12/01 06:12:15;;;;;;;15.98;8.27;;;;;;;15.17;40.65;92279.19;4984927;28;20030;-92
2021/12/01 06:14:42;;;;;;;20.35;8.07;;;;;;;15.13;40.49;92289.66;4991822;28;20038;-90
2021/12/01 06:17:10;;;;;;;44.10;12.52;;;;;;;15.08;40.83;92283.75;4997384;28;20033;-93
2021/12/01 06:19:35;;;;;;;50.95;13.63;;;;;;;15.13;41.36;92289.66;5013046;28;20044;-91
2021/12/01 06:22:01;;;;;;;88.05;21.80;;;;;;;15.19;41.84;92298.44;4996407;28;20090;-90
2021/12/01 06:24:27;;;;;;;114.05;30.73;;;;;;;15.27;42.54;92288.44;5013536;28;20030;-88
2021/12/01 06:26:52;;;;;;;110.35;34.42;;;;;;;15.25;43.48;92288.22;4995192;28;20038;-91
2021/12/01 06:29:18;;;;;;;91.20;33.53;;;;;;;15.38;44.14;92286.28;4972766;28;20121;-90
2021/12/01 06:31:44;;;;;;;83.93;33.53;;;;;;;15.37;44.25;92276.63;4974714;28;20033;-89
2021/12/01 06:34:10;;;;;;;100.82;33.28;;;;;;;15.43;44.54;92282.00;5000225;28;20037;-88
2021/12/01 06:36:35;;;;;;;140.20;42.38;;;;;;;15.52;44.46;92276.19;4978570;28;20464;-89
2021/12/01 06:39:01;;;;;;;131.98;40.88;;;;;;;15.49;44.15;92271.78;4976936;28;20034;-89
2021/12/01 06:41:26;;;;;;;96.82;31.55;;;;;;;15.38;44.25;92269.94;5003407;28;20101;-90
2021/12/01 06:43:52;;;;;;;97.80;33.63;;;;;;;15.36;44.35;92269.00;4987337;28;20030;-89
2021/12/01 06:46:17;;;;;;;97.00;34.25;;;;;;;15.45;44.69;92271.34;4991529;28;20542;-89
2021/12/01 06:48:43;;;;;;;132.60;41.20;;;;;;;15.48;44.74;92269.56;5000867;28;20042;-90
2021/12/01 06:51:08;;;;;;;140.15;46.97;;;;;;;15.46;44.84;92258.44;4977001;28;20026;-89
2021/12/01 06:53:34;;;;;;;99.00;36.83;;;;;;;15.55;44.75;92258.06;4990964;28;20041;-88
2021/12/01 06:55:59;;;;;;;174.13;45.88;;;;;;;15.53;44.74;92253.16;4989757;28;20209;-88
2021/12/01 06:58:25;;;;;;;158.32;48.53;;;;;;;15.60;44.77;92254.53;4985881;28;20058;-86
2021/12/01 07:00:50;;;;;;;190.82;54.08;;;;;;;15.54;45.11;92256.59;4974072;28;20042;-88
2021/12/01 07:03:16;;;;;;;230.77;64.50;;;;;;;15.47;45.36;92254.47;4987514;28;20141;-88
2021/12/01 07:05:42;;;;;;;157.85;51.08;;;;;;;15.60;45.02;92258.00;4975665;28;20637;-90
2021/12/01 07:08:09;;;;;;;141.43;42.95;;;;;;;15.51;44.46;92261.09;4970227;28;20062;-90
2021/12/01 07:10:35;;;;;;;184.32;97.32;;;;;;;15.64;44.25;92252.97;4959110;28;20071;-88
2021/12/01 07:13:01;;;;;;;317.83;192.90;;;;;;;15.74;44.98;92261.50;4960045;28;20035;-91
2021/12/01 07:15:26;;;;;;;163.02;55.08;;;;;;;15.79;45.24;92259.94;4991525;28;20110;-89
2021/12/01 07:17:53;;;;;;;118.93;40.63;;;;;;;15.73;43.87;92260.75;4976651;28;20132;-91
2021/12/01 07:20:19;;;;;;;109.32;39.20;;;;;;;15.69;44.54;92260.31;4972667;28;20038;-87
2021/12/01 07:22:44;;;;;;;136.73;44.83;;;;;;;15.70;44.64;92256.34;4994800;28;20053;-90
2021/12/01 07:25:10;;;;;;;117.05;46.13;;;;;;;15.69;44.54;92263.06;4976182;28;20632;-91
2021/12/01 07:27:35;;;;;;;157.07;50.88;;;;;;;15.65;45.00;92253.72;4971982;28;20076;-89
2021/12/01 07:30:01;;;;;;;133.40;47.22;;;;;;;15.65;45.33;92251.00;4973584;28;20096;-91
2021/12/01 07:32:26;;;;;;;125.85;44.20;;;;;;;15.56;45.02;92245.94;4967927;28;20460;-90
2021/12/01 07:34:52;;;;;;;131.25;41.47;;;;;;;15.59;44.94;92248.34;4972888;28;20042;-88
2021/12/01 07:37:18;;;;;;;124.30;41.75;;;;;;;15.61;45.07;92253.28;4958195;28;21031;-89
2021/12/01 07:39:44;;;;;;;150.73;50.65;;;;;;;15.63;45.29;92245.31;4954961;28;20065;-88
2021/12/01 07:42:09;;;;;;;146.55;49.03;;;;;;;15.62;45.29;92230.97;4954589;28;20049;-91
2021/12/01 07:44:35;;;;;;;241.27;69.63;;;;;;;15.60;45.42;92238.91;4948580;28;20042;-90
2021/12/01 07:47:00;;;;;;;139.40;47.08;;;;;;;15.66;45.61;92228.69;4964244;28;20038;-89
2021/12/01 07:49:27;;;;;;;148.07;45.88;;;;;;;15.68;45.53;92228.88;4954021;28;20046;-91
2021/12/01 07:51:52;;;;;;;145.95;46.33;;;;;;;15.74;45.39;92231.53;4979746;28;20050;-89
2021/12/01 07:54:18;;;;;;;134.57;46.90;;;;;;;15.73;45.66;92235.50;4958065;28;20038;-87
2021/12/01 07:56:43;;;;;;;112.93;43.95;;;;;;;15.76;45.60;92229.75;4939876;28;20051;-89
2021/12/01 07:59:11;;;;;;;131.63;46.10;;;;;;;15.76;45.34;92229.00;4950714;28;20051;-87
2021/12/01 08:01:36;;;;;;;105.40;41.95;;;;;;;15.69;45.66;92226.91;4982935;28;20221;-89
2021/12/01 08:04:02;;;;;;;115.63;48.90;;;;;;;15.68;45.96;92223.44;4983065;28;20074;-89
2021/12/01 08:06:30;;;;;;;122.20;48.95;;;;;;;15.70;45.57;92220.19;4960633;28;20070;-88
2021/12/01 08:08:59;;;;;;;183.32;80.13;;;;;;;15.82;45.16;92220.72;5001008;28;20306;-89
2021/12/01 08:11:27;;;;;;;145.63;60.17;;;;;;;15.73;45.90;92217.16;4994068;28;20038;-88
2021/12/01 08:13:52;;;;;;;162.18;65.32;;;;;;;15.71;46.18;92219.69;4982244;28;20600;-90
2021/12/01 08:16:18;;;;;;;155.40;67.53;;;;;;;15.74;45.90;92215.91;4992338;28;20113;-87
2021/12/01 08:18:43;;;;;;;156.15;72.25;;;;;;;15.71;46.14;92208.78;4989050;28;20618;-88
2021/12/01 08:21:08;;;;;;;170.45;75.35;;;;;;;15.71;46.16;92203.34;4973785;28;20266;-91
2021/12/01 08:23:34;;;;;;;177.07;79.38;;;;;;;15.67;45.91;92186.56;4975418;28;20064;-89
2021/12/01 08:25:59;;;;;;;179.30;83.65;;;;;;;15.62;46.27;92195.56;4999643;28;20091;-88
2021/12/01 08:28:25;;;;;;;204.57;90.40;;;;;;;15.64;46.05;92193.03;4973893;28;20038;-89
2021/12/01 08:30:51;;;;;;;208.27;90.22;;;;;;;15.63;46.34;92183.41;4973540;28;20041;-89
2021/12/01 08:33:18;;;;;;;197.25;86.32;;;;;;;15.66;46.08;92173.47;4998113;28;20058;-89
2021/12/01 08:35:43;;;;;;;199.35;86.15;;;;;;;15.71;46.08;92176.09;4978664;28;20034;-86
2021/12/01 08:38:09;;;;;;;157.35;70.80;;;;;;;15.71;46.07;92164.44;4990483;28;20406;-88
2021/12/01 08:40:35;;;;;;;172.55;78.15;;;;;;;15.71;45.88;92153.56;4994601;28;20042;-88
2021/12/01 08:43:00;;;;;;;181.45;82.75;;;;;;;15.68;46.01;92146.44;4980853;28;20041;-90
2021/12/01 08:45:27;;;;;;;488.83;154.85;;;;;;;15.75;45.58;92141.09;4985704;28;20048;-87
2021/12/01 08:47:52;;;;;;;300.08;115.43;;;;;;;15.74;46.53;92136.91;4979716;28;20050;-89
2021/12/01 08:50:18;;;;;;;247.55;110.05;;;;;;;15.73;46.30;92135.44;4983165;28;20041;-89
2021/12/01 08:52:45;;;;;;;259.80;123.72;;;;;;;15.81;46.20;92118.44;4979557;28;20057;-91
2021/12/01 08:55:10;;;;;;;235.57;118.60;;;;;;;15.75;46.57;92115.84;4981558;28;20083;-90
2021/12/01 08:57:36;;;;;;;268.10;140.63;;;;;;;15.74;46.10;92130.72;4979626;28;20034;-90
2021/12/01 09:00:03;;;;;;;282.27;145.23;;;;;;;15.72;46.46;92135.97;4966021;28;20061;-88
2021/12/01 09:02:31;;;;;;;279.98;149.40;;;;;;;15.80;46.37;92138.78;4997578;28;20041;-87
2021/12/01 09:04:56;;;;;;;316.45;160.00;;;;;;;15.81;46.60;92130.06;4983268;28;20049;-89
2021/12/01 09:07:22;;;;;;;318.60;165.40;;;;;;;15.81;46.71;92124.63;4982636;28;20096;-90
2021/12/01 09:09:47;;;;;;;313.67;164.10;;;;;;;15.83;46.60;92121.38;4969572;28;20135;-89
2021/12/01 09:12:14;;;;;;;309.10;157.18;;;;;;;15.85;46.18;92135.22;4981207;28;20026;-86
2021/12/01 09:14:40;;;;;;;320.08;169.57;;;;;;;15.84;46.51;92141.91;4979823;28;20121;-88
2021/12/01 09:17:09;;;;;;;332.55;172.82;;;;;;;15.82;46.69;92136.25;4984081;28;20073;-89
2021/12/01 09:19:37;;;;;;;328.60;178.32;;;;;;;15.84;46.53;92131.75;4986004;28;20255;-88
2021/12/01 09:22:03;;;;;;;317.48;173.90;;;;;;;15.86;46.57;92136.69;4985270;28;20042;-90
2021/12/01 09:24:29;;;;;;;321.95;178.68;;;;;;;15.83;46.70;92127.56;4997244;28;20095;-90
2021/12/01 09:26:54;;;;;;;306.80;177.27;;;;;;;15.82;46.83;92136.25;5004238;28;20129;-88
2021/12/01 09:29:29;;;;;;;327.92;178.77;;;;;;;15.84;46.68;92141.91;5019529;28;20386;-90
2021/12/01 09:31:55;;;;;;;331.23;195.57;;;;;;;15.86;46.75;92140.13;4970796;28;20124;-88
2021/12/01 09:34:21;;;;;;;347.08;197.02;;;;;;;15.92;46.78;92137.31;4997698;28;20041;-90
2021/12/01 09:36:46;;;;;;;347.48;197.35;;;;;;;15.88;46.86;92137.63;4993049;28;20040;-91
2021/12/01 09:39:12;;;;;;;342.85;200.82;;;;;;;15.87;46.86;92130.69;5010385;28;20375;-89
2021/12/01 09:41:37;;;;;;;217.25;119.40;;;;;;;15.80;44.77;92134.06;5002142;28;20053;-90
2021/12/01 09:44:03;;;;;;;204.40;107.15;;;;;;;15.79;44.84;92118.25;4977289;28;20247;-89
2021/12/01 09:46:30;;;;;;;220.65;125.55;;;;;;;15.77;45.25;92118.78;4978883;28;20699;-92
2021/12/01 09:48:56;;;;;;;250.77;135.88;;;;;;;15.79;45.53;92115.53;4986330;28;20046;-88
2021/12/01 09:51:21;;;;;;;254.18;147.68;;;;;;;15.80;45.85;92117.72;4995051;28;20099;-88
2021/12/01 09:53:48;;;;;;;262.83;153.25;;;;;;;15.83;46.09;92103.03;4985178;28;20055;-91
2021/12/01 09:56:14;;;;;;;294.85;170.98;;;;;;;15.87;46.18;92098.00;4992941;28;20037;-89
2021/12/01 09:58:41;;;;;;;306.27;190.70;;;;;;;15.81;46.13;92100.09;4995303;28;20105;-90
2021/12/01 10:01:12;;;;;;;287.13;166.90;;;;;;;15.82;46.65;92101.56;4969125;28;20089;-91
2021/12/01 10:03:39;;;;;;;311.95;175.60;;;;;;;15.89;45.92;92087.31;4992512;28;20074;-90
2021/12/01 10:06:13;;;;;;;331.27;201.77;;;;;;;15.84;46.24;92074.53;4994972;28;20046;-89
2021/12/01 10:08:52;;;;;;;316.08;191.68;;;;;;;15.90;46.27;92075.16;4985386;28;20172;-92
2021/12/01 10:11:21;;;;;;;268.80;105.15;;;;;;;15.79;43.74;92072.66;4995534;28;20138;-88
2021/12/01 10:13:55;;;;;;;318.85;97.35;;;;;;;15.69;43.56;92058.72;5026580;28;20527;-88
2021/12/01 10:16:22;;;;;;;292.70;100.15;;;;;;;15.70;44.01;92051.28;4976052;28;20045;-89
2021/12/01 10:18:48;;;;;;;296.90;99.20;;;;;;;15.72;43.69;92046.06;4971079;28;20038;-90
2021/12/01 10:21:15;;;;;;;295.83;105.70;;;;;;;15.76;43.99;92041.03;4991415;28;20461;-89
2021/12/01 10:23:47;;;;;;;242.57;125.68;;;;;;;15.84;44.56;92052.00;5007170;28;20058;-86
2021/12/01 10:26:30;;;;;;;264.92;144.77;;;;;;;15.83;45.22;92051.25;4991790;28;20054;-90
2021/12/01 10:28:58;;;;;;;250.60;139.02;;;;;;;15.84;45.60;92039.09;4975820;28;20061;-90
2021/12/01 10:31:35;;;;;;;249.32;136.77;;;;;;;15.86;45.65;92042.03;4975370;28;20060;-88
2021/12/01 10:34:31;;;;;;;274.60;138.05;;;;;;;15.89;45.59;92035.53;5000530;28;20042;-89
2021/12/01 10:37:29;;;;;;;246.40;126.07;;;;;;;15.99;45.62;92019.47;5013745;28;20456;-89
2021/12/01 10:40:11;;;;;;;298.38;155.40;;;;;;;16.00;45.50;92018.22;5008682;28;20038;-89
2021/12/01 10:42:55;;;;;;;259.17;134.35;;;;;;;15.96;45.59;92006.91;5008532;28;20057;-90
2021/12/01 10:45:22;;;;;;;316.13;156.38;;;;;;;15.97;45.40;92008.38;4994795;28;20041;-87
2021/12/01 10:47:48;;;;;;;291.63;151.88;;;;;;;16.02;45.27;92012.97;4999862;28;20034;-91
2021/12/01 10:50:15;;;;;;;296.52;151.77;;;;;;;15.98;45.26;91991.50;4989834;28;20045;-88
2021/12/01 10:52:42;;;;;;;290.10;150.70;;;;;;;15.95;45.35;92000.72;4974348;28;20445;-88
2021/12/01 10:55:11;;;;;;;274.95;144.85;;;;;;;16.06;45.41;91994.28;4955990;28;20042;-87
2021/12/01 10:57:55;;;;;;;359.02;170.38;;;;;;;15.99;45.68;91981.34;4977075;28;20037;-91
2021/12/01 11:00:31;;;;;;;337.00;167.38;;;;;;;16.01;45.65;91985.00;5012396;28;20152;-88
2021/12/01 11:03:07;;;;;;;330.42;162.10;;;;;;;15.98;46.06;91977.13;5005944;28;20052;-87
2021/12/01 11:05:33;;;;;;;318.85;169.98;;;;;;;15.98;46.13;91982.59;5007872;28;20068;-91
2021/12/01 11:08:18;;;;;;;276.50;143.43;;;;;;;16.05;45.54;91981.91;4992305;28;20041;-88
2021/12/01 11:10:49;;;;;;;289.75;154.38;;;;;;;16.07;45.57;91984.84;5006921;28;20042;-89
2021/12/01 11:13:15;;;;;;;;;;;;;;;16.11;47.05;91982.53;4980910;28;20109;-91
2021/12/01 11:15:42;;;;;;;240.15;132.60;;;;;;;16.22;45.87;91981.56;5001481;28;19921;-89
2021/12/01 11:18:10;;;;;;;237.88;130.80;;;;;;;16.28;46.34;91974.69;4977154;28;20042;-88
2021/12/01 11:20:46;;;;;;;240.82;142.27;;;;;;;16.30;46.20;91963.25;4980438;28;20807;-91